createdAt,value
2022-12-15T00:02:22.510Z,100780.80
2022-12-15T00:05:49.971Z,100780.11
2022-12-15T00:09:14.209Z,100779.69
2022-12-15T00:12:35.463Z,100779.87
2022-12-15T00:15:59.694Z,100780.67
2022-12-15T00:19:22.825Z,100777.48
2022-12-15T00:22:46.345Z,100773.56
2022-12-15T00:26:10.038Z,100781.42
2022-12-15T00:29:33.062Z,100771.25
2022-12-15T00:32:55.769Z,100771.53
2022-12-15T00:36:18.649Z,100775.58
2022-12-15T00:39:24.350Z,100771.16
2022-12-15T00:42:30.098Z,100775.30
2022-12-15T00:45:37.712Z,100776.84
2022-12-15T00:48:42.546Z,100784.02
2022-12-15T00:52:05.324Z,100774.02
2022-12-15T00:55:28.168Z,100768.36
2022-12-15T00:58:51.778Z,100765.51
2022-12-15T01:02:08.440Z,100749.83
2022-12-15T01:05:31.793Z,100743.79
2022-12-15T01:08:55.457Z,100734.38
2022-12-15T01:12:19.474Z,100726.89
2022-12-15T01:15:43.776Z,100713.67
2022-12-15T01:19:06.888Z,100721.42
2022-12-15T01:22:12.820Z,100725.94
2022-12-15T01:25:19.592Z,100721.31
2022-12-15T01:28:24.345Z,100729.59
2022-12-15T01:31:30.206Z,100724.80
2022-12-15T01:34:35.628Z,100729.67
2022-12-15T01:37:40.892Z,100715.08
2022-12-15T01:40:56.591Z,100725.37
2022-12-15T01:44:02.464Z,100716.16
2022-12-15T01:47:08.821Z,100718.17
2022-12-15T01:50:13.708Z,100722.11
2022-12-15T01:53:18.704Z,100721.91
2022-12-15T01:56:23.732Z,100728.23
2022-12-15T01:59:36.894Z,100725.48
2022-12-15T02:02:43.833Z,100718.46
2022-12-15T02:05:50.555Z,100710.01
2022-12-15T02:08:58.992Z,100705.02
2022-12-15T02:12:33.744Z,100696.28
2022-12-15T02:15:57.905Z,100700.99
2022-12-15T02:19:43.126Z,100699.83
2022-12-15T02:23:31.806Z,100708.86
2022-12-15T02:27:08.411Z,100712.89
2022-12-15T02:30:35.373Z,100704.63
2022-12-15T02:33:41.693Z,100695.42
2022-12-15T02:36:55.464Z,100688.72
2022-12-15T02:39:59.905Z,100691.98
2022-12-15T02:43:08.366Z,100690.23
2022-12-15T02:46:21.853Z,100681.78
2022-12-15T02:49:49.921Z,100670.33
2022-12-15T02:53:30.627Z,100666.11
2022-12-15T02:56:58.601Z,100672.48
2022-12-15T03:00:16.268Z,100672.00
2022-12-15T03:03:23.674Z,100651.47
2022-12-15T03:06:22.102Z,100646.30
2022-12-15T03:09:28.162Z,100644.67
2022-12-15T03:12:33.954Z,100641.20
2022-12-15T03:15:39.445Z,100646.48
2022-12-15T03:18:40.110Z,100645.91
2022-12-15T03:21:45.118Z,100648.52
2022-12-15T03:24:50.682Z,100652.33
2022-12-15T03:27:56.265Z,100651.74
2022-12-15T03:31:03.229Z,100648.39
2022-12-15T03:34:08.985Z,100641.38
2022-12-15T03:37:15.487Z,100637.17
2022-12-15T03:40:21.508Z,100627.97
2022-12-15T03:43:26.579Z,100622.27
2022-12-15T03:46:31.767Z,100626.61
2022-12-15T03:49:30.810Z,100629.78
2022-12-15T03:52:16.432Z,100626.80
2022-12-15T03:55:08.919Z,100626.72
2022-12-15T03:58:02.789Z,100615.48
2022-12-15T04:01:07.611Z,100615.11
2022-12-15T04:04:13.076Z,100607.81
2022-12-15T04:07:17.944Z,100612.40
2022-12-15T04:10:26.317Z,100605.61
2022-12-15T04:13:31.451Z,100600.57
2022-12-15T04:16:37.613Z,100600.41
2022-12-15T04:20:00.771Z,100601.56
2022-12-15T04:23:05.964Z,100620.09
2022-12-15T04:26:30.562Z,100611.95
2022-12-15T04:29:54.406Z,100606.57
2022-12-15T04:33:18.374Z,100596.00
2022-12-15T04:36:42.074Z,100583.23
2022-12-15T04:40:05.960Z,100587.16
2022-12-15T04:43:29.384Z,100591.20
2022-12-15T04:46:52.219Z,100595.23
2022-12-15T04:50:15.552Z,100598.85
2022-12-15T04:53:48.875Z,100600.79
2022-12-15T04:57:12.740Z,100587.16
2022-12-15T05:00:38.690Z,100588.99
2022-12-15T05:04:02.832Z,100591.57
2022-12-15T05:07:26.421Z,100593.11
2022-12-15T05:10:50.951Z,100592.13
2022-12-15T05:14:14.566Z,100578.47
2022-12-15T05:17:41.383Z,100588.85
2022-12-15T05:21:03.908Z,100583.28
2022-12-15T05:24:27.622Z,100584.33
2022-12-15T05:27:51.447Z,100582.87
2022-12-15T05:31:15.907Z,100600.01
2022-12-15T05:34:21.338Z,100609.09
2022-12-15T05:37:26.910Z,100618.76
2022-12-15T05:40:26.608Z,100618.56
2022-12-15T05:43:32.892Z,100612.44
2022-12-15T05:46:38.749Z,100612.55
2022-12-15T05:49:44.859Z,100607.63
2022-12-15T05:52:50.495Z,100610.87
2022-12-15T05:55:56.001Z,100609.91
2022-12-15T05:59:02.022Z,100609.72
2022-12-15T06:02:08.417Z,100617.41
2022-12-15T06:05:13.942Z,100609.83
2022-12-15T06:08:20.391Z,100608.55
2022-12-15T06:11:29.377Z,100602.19
2022-12-15T06:14:34.512Z,100607.76
2022-12-15T06:17:39.647Z,100612.54
2022-12-15T06:20:45.328Z,100622.73
2022-12-15T06:23:52.433Z,100617.62
2022-12-15T06:26:58.063Z,100623.47
2022-12-15T06:30:04.694Z,100611.85
2022-12-15T06:33:10.417Z,100618.53
2022-12-15T06:36:25.363Z,100620.97
2022-12-15T06:39:30.697Z,100606.09
2022-12-15T06:42:36.711Z,100609.59
2022-12-15T06:45:42.205Z,100601.91
2022-12-15T06:48:48.605Z,100594.13
2022-12-15T06:51:54.620Z,100589.42
2022-12-15T06:55:00.538Z,100588.50
2022-12-15T06:58:05.437Z,100575.11
2022-12-15T07:01:10.811Z,100570.94
2022-12-15T07:04:17.710Z,100567.10
2022-12-15T07:07:24.945Z,100565.24
2022-12-15T07:10:30.946Z,100555.02
2022-12-15T07:13:36.043Z,100548.01
2022-12-15T07:16:42.229Z,100542.68
2022-12-15T07:19:47.968Z,100535.36
2022-12-15T07:22:53.891Z,100536.23
2022-12-15T07:25:59.375Z,100532.52
2022-12-15T07:29:05.280Z,100528.53
2022-12-15T07:32:10.278Z,100526.88
2022-12-15T07:35:16.803Z,100527.19
2022-12-15T07:38:23.086Z,100523.12
2022-12-15T07:41:30.264Z,100514.67
2022-12-15T07:44:35.332Z,100504.44
2022-12-15T07:47:41.151Z,100491.44
2022-12-15T07:50:48.219Z,100477.56
2022-12-15T07:53:56.638Z,100464.84
2022-12-15T07:57:03.273Z,100463.87
2022-12-15T08:00:11.596Z,100459.42
2022-12-15T08:03:17.412Z,100450.41
2022-12-15T08:06:23.968Z,100443.67
2022-12-15T08:09:24.005Z,100431.31
2022-12-15T08:12:29.129Z,100431.92
2022-12-15T08:15:34.243Z,100431.69
2022-12-15T08:18:40.426Z,100444.44
2022-12-15T08:21:46.109Z,100455.20
2022-12-15T08:24:52.889Z,100467.85
2022-12-15T08:28:00.405Z,100467.23
2022-12-15T08:31:07.055Z,100452.64
2022-12-15T08:34:16.231Z,100443.70
2022-12-15T08:37:21.687Z,100421.95
2022-12-15T08:40:27.415Z,100404.56
2022-12-15T08:43:33.611Z,100399.87
2022-12-15T08:46:44.779Z,100390.23
2022-12-15T08:49:51.586Z,100407.99
2022-12-15T08:53:29.126Z,100398.91
2022-12-15T08:56:04.086Z,100394.72
2022-12-15T08:59:14.585Z,100376.86
2022-12-15T09:02:19.649Z,100375.77
2022-12-15T09:05:24.954Z,100373.63
2022-12-15T09:08:30.931Z,100369.44
2022-12-15T09:11:36.434Z,100361.23
2022-12-15T09:14:42.585Z,100343.16
2022-12-15T09:17:48.354Z,100328.37
2022-12-15T09:20:53.253Z,100329.78
2022-12-15T09:24:04.961Z,100330.27
2022-12-15T09:27:10.316Z,100316.50
2022-12-15T09:30:16.347Z,100319.70
2022-12-15T09:33:21.877Z,100302.84
2022-12-15T09:36:27.276Z,100307.29
2022-12-15T09:39:32.855Z,100295.97
2022-12-15T09:42:43.817Z,100279.56
2022-12-15T09:45:53.902Z,100276.16
2022-12-15T09:48:52.784Z,100265.36
2022-12-15T09:52:26.188Z,100265.82
2022-12-15T09:55:40.806Z,100254.94
2022-12-15T09:59:12.502Z,100229.33
2022-12-15T10:03:03.283Z,100228.83
2022-12-15T10:06:29.816Z,100213.02
2022-12-15T10:09:37.829Z,100213.91
2022-12-15T10:12:59.098Z,100220.02
2022-12-15T10:16:04.740Z,100211.46
2022-12-15T10:19:17.836Z,100197.36
2022-12-15T10:22:30.945Z,100193.43
2022-12-15T10:25:39.967Z,100199.91
2022-12-15T10:29:15.838Z,100189.73
2022-12-15T10:32:39.321Z,100183.02
2022-12-15T10:35:42.501Z,100184.58
2022-12-15T10:38:54.170Z,100178.72
2022-12-15T10:42:00.482Z,100172.45
2022-12-15T10:45:13.417Z,100163.00
2022-12-15T10:48:19.000Z,100170.61
2022-12-15T10:51:33.365Z,100180.44
2022-12-15T10:54:37.809Z,100169.28
2022-12-15T10:57:44.667Z,100183.50
2022-12-15T11:00:52.885Z,100184.34
2022-12-15T11:03:59.811Z,100179.07
2022-12-15T11:07:09.184Z,100189.71
2022-12-15T11:10:16.066Z,100203.56
2022-12-15T11:13:33.203Z,100202.84
2022-12-15T11:16:29.590Z,100205.06
2022-12-15T11:19:32.582Z,100184.46
2022-12-15T11:23:02.933Z,100187.77
2022-12-15T11:26:17.447Z,100187.52
2022-12-15T11:29:42.047Z,100179.05
2022-12-15T11:32:49.499Z,100164.80
2022-12-15T11:36:22.350Z,100153.89
2022-12-15T11:39:34.923Z,100183.06
2022-12-15T11:43:08.273Z,100221.59
2022-12-15T11:46:33.110Z,100214.48
2022-12-15T11:50:03.944Z,100183.20
2022-12-15T11:53:49.333Z,100157.29
2022-12-15T11:56:54.460Z,100188.48
2022-12-15T12:00:13.350Z,100175.11
2022-12-15T12:03:41.824Z,100176.72
2022-12-15T12:07:13.166Z,100172.88
2022-12-15T12:10:57.333Z,100190.55
2022-12-15T12:14:22.667Z,100197.20
2022-12-15T12:17:32.318Z,100199.19
2022-12-15T12:20:40.044Z,100198.95
2022-12-15T12:24:02.806Z,100211.13
2022-12-15T12:27:18.649Z,100222.78
2022-12-15T12:30:31.703Z,100225.63
2022-12-15T12:33:59.886Z,100211.27
2022-12-15T12:37:06.543Z,100198.50
2022-12-15T12:40:15.305Z,100208.19
2022-12-15T12:43:22.882Z,100190.88
2022-12-15T12:46:50.694Z,100184.04
2022-12-15T12:50:03.473Z,100177.83
2022-12-15T12:53:14.860Z,100174.75
2022-12-15T12:56:13.770Z,100168.47
2022-12-15T12:59:22.905Z,100169.47
2022-12-15T13:02:41.009Z,100167.38
2022-12-15T13:05:50.512Z,100163.91
2022-12-15T13:09:00.454Z,100160.45
2022-12-15T13:12:27.568Z,100161.09
2022-12-15T13:15:21.467Z,100166.09
2022-12-15T13:18:35.941Z,100160.30
2022-12-15T13:22:06.350Z,100157.98
2022-12-15T13:25:13.130Z,100173.50
2022-12-15T13:28:35.522Z,100168.16
2022-12-15T13:31:42.769Z,100147.16
2022-12-15T13:34:52.327Z,100137.09
2022-12-15T13:38:08.875Z,100128.86
2022-12-15T13:41:14.242Z,100131.80
2022-12-15T13:44:43.353Z,100123.98
2022-12-15T13:47:49.202Z,100119.83
2022-12-15T13:51:31.933Z,100114.77
2022-12-15T13:54:44.261Z,100127.50
2022-12-15T13:57:53.611Z,100142.39
2022-12-15T14:01:00.392Z,100160.59
2022-12-15T14:03:53.293Z,100149.69
2022-12-15T14:07:15.223Z,100166.19
2022-12-15T14:10:21.748Z,100180.42
2022-12-15T14:13:34.752Z,100179.04
2022-12-15T14:16:40.904Z,100179.42
2022-12-15T14:19:51.155Z,100182.42
2022-12-15T14:22:57.644Z,100177.03
2022-12-15T14:26:10.071Z,100186.91
2022-12-15T14:29:19.153Z,100181.62
2022-12-15T14:32:25.665Z,100176.48
2022-12-15T14:35:41.946Z,100171.80
2022-12-15T14:39:03.618Z,100178.27
2022-12-15T14:42:09.208Z,100180.16
2022-12-15T14:45:07.150Z,100164.33
2022-12-15T14:51:15.657Z,100157.03
2022-12-15T14:54:20.239Z,100168.89
2022-12-15T14:57:32.968Z,100161.27
2022-12-15T15:00:49.903Z,100168.73
2022-12-15T15:03:55.950Z,100176.63
2022-12-15T15:07:06.686Z,100174.55
2022-12-15T15:10:18.726Z,100174.83
2022-12-15T15:13:39.965Z,100178.06
2022-12-15T15:16:45.124Z,100184.92
2022-12-15T15:19:52.711Z,100184.98
2022-12-15T15:22:58.529Z,100192.31
2022-12-15T15:26:09.142Z,100190.66
2022-12-15T15:29:14.188Z,100194.39
2022-12-15T15:32:27.591Z,100194.31
2022-12-15T15:35:33.312Z,100195.22
2022-12-15T15:38:45.390Z,100195.96
2022-12-15T15:41:50.565Z,100190.34
2022-12-15T15:44:57.141Z,100195.33
2022-12-15T15:48:04.993Z,100200.33
2022-12-15T15:51:10.782Z,100193.45
2022-12-15T15:54:21.385Z,100202.55
2022-12-15T15:57:30.014Z,100202.78
2022-12-15T16:00:36.104Z,100197.55
2022-12-15T16:03:43.220Z,100196.36
2022-12-15T16:06:49.118Z,100187.80
2022-12-15T16:09:55.017Z,100191.73
2022-12-15T16:13:00.458Z,100188.95
2022-12-15T16:15:53.405Z,100188.66
2022-12-15T16:18:59.874Z,100184.36
2022-12-15T16:22:06.043Z,100195.17
2022-12-15T16:25:12.581Z,100185.95
2022-12-15T16:28:18.058Z,100188.12
2022-12-15T16:31:29.112Z,100186.22
2022-12-15T16:34:33.764Z,100187.42
2022-12-15T16:37:43.176Z,100185.81
2022-12-15T16:40:51.761Z,100189.43
2022-12-15T16:43:57.890Z,100183.52
2022-12-15T16:47:02.538Z,100179.47
2022-12-15T16:50:08.504Z,100175.50
2022-12-15T16:53:14.866Z,100172.80
2022-12-15T16:56:21.144Z,100169.86
2022-12-15T16:59:34.884Z,100168.48
2022-12-15T17:02:42.358Z,100166.44
2022-12-15T17:05:49.576Z,100162.93
2022-12-15T17:09:05.109Z,100150.44
2022-12-15T17:12:11.115Z,100152.42
2022-12-15T17:15:16.412Z,100165.91
2022-12-15T17:18:21.827Z,100158.06
2022-12-15T17:21:28.445Z,100153.33
2022-12-15T17:24:34.626Z,100148.67
2022-12-15T17:27:41.297Z,100147.70
2022-12-15T17:30:46.741Z,100141.34
2022-12-15T17:33:52.396Z,100137.62
2022-12-15T17:36:58.472Z,100142.94
2022-12-15T17:40:04.778Z,100143.58
2022-12-15T17:43:10.647Z,100144.31
2022-12-15T17:46:16.383Z,100142.77
2022-12-15T17:49:22.691Z,100151.02
2022-12-15T17:52:43.948Z,100147.92
2022-12-15T17:55:48.646Z,100154.48
2022-12-15T17:58:54.173Z,100153.77
2022-12-15T18:02:02.034Z,100160.24
2022-12-15T18:05:08.169Z,100162.84
2022-12-15T18:08:16.685Z,100160.28
2022-12-15T18:11:25.743Z,100162.34
2022-12-15T18:14:33.342Z,100159.19
2022-12-15T18:17:57.673Z,100155.03
2022-12-15T18:21:02.695Z,100159.93
2022-12-15T18:24:07.913Z,100155.97
2022-12-15T18:27:12.806Z,100160.41
2022-12-15T18:30:18.552Z,100164.28
2022-12-15T18:33:24.029Z,100162.39
2022-12-15T18:36:23.559Z,100161.14
2022-12-15T18:39:19.863Z,100160.98
2022-12-15T18:42:16.138Z,100158.87
2022-12-15T18:45:04.429Z,100161.39
2022-12-15T18:47:57.687Z,100165.69
2022-12-15T18:50:44.188Z,100162.79
2022-12-15T18:53:43.838Z,100159.80
2022-12-15T18:56:37.118Z,100154.33
2022-12-15T18:59:42.588Z,100155.08
2022-12-15T19:02:48.429Z,100151.00
2022-12-15T19:05:53.122Z,100149.67
2022-12-15T19:08:58.872Z,100158.28
2022-12-15T19:12:21.679Z,100153.11
2022-12-15T19:15:31.194Z,100145.83
2022-12-15T19:18:55.864Z,100151.52
2022-12-15T19:22:18.692Z,100152.47
2022-12-15T19:25:30.026Z,100159.89
2022-12-15T19:28:37.966Z,100159.92
2022-12-15T19:31:43.323Z,100165.05
2022-12-15T19:34:48.856Z,100164.88
2022-12-15T19:37:55.915Z,100163.91
2022-12-15T19:41:01.664Z,100160.23
2022-12-15T19:44:07.799Z,100157.42
2022-12-15T19:47:13.301Z,100156.72
2022-12-15T19:50:19.023Z,100154.53
2022-12-15T19:53:33.894Z,100153.42
2022-12-15T19:56:39.518Z,100160.73
2022-12-15T19:59:44.733Z,100156.39
2022-12-15T20:02:51.481Z,100153.98
2022-12-15T20:05:56.693Z,100163.75
2022-12-15T20:09:03.946Z,100164.21
2022-12-15T20:12:09.496Z,100164.86
2022-12-15T20:15:15.729Z,100170.24
2022-12-15T20:18:21.426Z,100176.92
2022-12-15T20:21:27.275Z,100172.95
2022-12-15T20:24:32.981Z,100170.38
2022-12-15T20:27:38.531Z,100169.77
2022-12-15T20:30:47.009Z,100171.95
2022-12-15T20:33:53.008Z,100175.34
2022-12-15T20:36:59.127Z,100174.92
2022-12-15T20:40:04.497Z,100172.86
2022-12-15T20:43:10.709Z,100172.36
2022-12-15T20:46:28.521Z,100176.31
2022-12-15T20:49:37.748Z,100169.33
2022-12-15T20:52:43.888Z,100172.89
2022-12-15T20:55:49.353Z,100172.09
2022-12-15T20:58:55.684Z,100170.55
2022-12-15T21:02:01.428Z,100169.56
2022-12-15T21:05:10.672Z,100175.27
2022-12-15T21:08:16.245Z,100177.02
2022-12-15T21:11:36.075Z,100176.84
2022-12-15T21:14:41.817Z,100168.36
2022-12-15T21:17:42.126Z,100166.94
2022-12-15T21:20:48.270Z,100162.67
2022-12-15T21:23:53.620Z,100149.91
2022-12-15T21:26:59.774Z,100134.65
2022-12-15T21:30:05.683Z,100128.30
2022-12-15T21:33:11.482Z,100139.16
2022-12-15T21:36:17.524Z,100140.91
2022-12-15T21:39:22.835Z,100134.97
2022-12-15T21:42:31.235Z,100119.91
2022-12-15T21:45:38.056Z,100128.19
2022-12-15T21:49:02.009Z,100137.12
2022-12-15T21:52:12.608Z,100145.74
2022-12-15T21:55:20.333Z,100155.14
2022-12-15T21:58:37.090Z,100161.09
2022-12-15T22:01:44.444Z,100164.59
2022-12-15T22:04:49.807Z,100164.53
2022-12-15T22:07:56.723Z,100172.59
2022-12-15T22:11:04.489Z,100187.27
2022-12-15T22:14:11.194Z,100186.84
2022-12-15T22:17:20.740Z,100200.20
2022-12-15T22:20:32.249Z,100208.91
2022-12-15T22:23:38.009Z,100217.23
2022-12-15T22:26:44.170Z,100221.66
2022-12-15T22:29:48.665Z,100222.73
2022-12-15T22:32:54.326Z,100225.45
2022-12-15T22:36:00.352Z,100225.02
2022-12-15T22:39:08.280Z,100228.39
2022-12-15T22:42:12.002Z,100228.86
2022-12-15T22:45:20.774Z,100231.22
2022-12-15T22:48:28.673Z,100223.52
2022-12-15T22:51:34.354Z,100233.35
2022-12-15T22:54:45.611Z,100234.08
2022-12-15T22:57:49.597Z,100247.91
2022-12-15T23:00:56.437Z,100250.42
2022-12-15T23:04:02.311Z,100250.70
2022-12-15T23:07:07.162Z,100254.92
2022-12-15T23:10:24.270Z,100248.22
2022-12-15T23:13:10.588Z,100266.29
2022-12-15T23:16:21.150Z,100281.78
2022-12-15T23:19:33.209Z,100286.51
2022-12-15T23:22:39.533Z,100285.66
2022-12-15T23:25:44.421Z,100311.83
2022-12-15T23:28:49.923Z,100317.70
2022-12-15T23:31:57.546Z,100319.22
2022-12-15T23:35:03.493Z,100331.45
2022-12-15T23:38:09.311Z,100332.09
2022-12-15T23:41:15.902Z,100338.01
2022-12-15T23:44:21.239Z,100337.86
2022-12-15T23:47:26.931Z,100344.28
2022-12-15T23:50:33.400Z,100342.91
2022-12-15T23:53:39.678Z,100345.64
2022-12-15T23:56:45.473Z,100340.37
2022-12-15T23:59:51.555Z,100347.03
